Flight Track Log - Related Links

Times and Time Zones

All times are in EDT time to prevent confusion due to time zone crossing. See the JBU56 flight status page for this flight to view local times or setup timezone preferences in your user account.

Time Position Orientation Groundspeed Altitude Reporting Facility
EDT Latitude Longitude Course Direction KTS MPH feet Rate Location/Type
Mon 09:16:36 AM 38.9500 -77.5000 90° East 162 186 1,200  Level Potomac TRACON
Mon 09:18:23 AM 39.0328 -77.5583 331° Northwest 239 275 4,000 2,084 Climbing Washington Center
Mon 09:19:00 AM 39.0290 -76.9570 77° East  Level FlightAware Approximate
Mon 09:19:23 AM 39.0981 -77.5147 27° Northeast 255 293 7,000  Level Washington Center
Mon 09:20:00 AM 39.0509 -76.8279 78° East  Level FlightAware Approximate
Mon 09:20:24 AM 39.1678 -77.4631 30° Northeast 260 299 9,800  Level Washington Center
Mon 09:21:00 AM 39.0667 -76.6979 90° East  Level FlightAware Approximate
Mon 09:21:24 AM 39.2336 -77.3814 44° Northeast 280 322 10,000  Level Washington Center
Mon 09:22:22 AM 39.1850 -77.2758 121° Southeast 228 262 10,000  Level Washington Center
Mon 09:23:23 AM 39.1153 -77.1914 137° Southeast 269 310 10,000 984 Level Washington Center
Mon 09:24:24 AM 39.0858 -77.0622 106° East 337 388 12,000 2,168 Climbing Washington Center
Mon 09:25:22 AM 39.0936 -76.9289 86° East 342 394 14,300 2,168 Climbing Washington Center
Mon 09:26:23 AM 39.1056 -76.7872 84° East 368 423 16,300 2,033 Climbing Washington Center
Mon 09:27:23 AM 39.1172 -76.6403 84° East 394 453 18,400 1,438 Climbing Washington Center
Mon 09:28:24 AM 39.1289 -76.4933 84° East 410 472 19,200 1,210 Climbing Washington Center
Mon 09:29:22 AM 39.1403 -76.3408 84° East 416 479 20,800 1,311 Climbing Washington Center
Mon 09:30:23 AM 39.1536 -76.1831 84° East 428 493 21,800 1,082 Climbing Washington Center
Mon 09:31:24 AM 39.1711 -76.0306 82° East 434 499 23,000 605 Climbing Washington Center
Mon 09:32:22 AM 39.2006 -75.8781 76° East 434 499 23,000 356 Level Washington Center
Mon 09:33:22 AM 39.2800 -75.7711 46° Northeast 421 484 23,700 496 Climbing Washington Center
Mon 09:34:23 AM 39.3781 -75.6453 45° Northeast 433 498 24,000 590 Climbing Washington Center
Mon 09:35:24 AM 39.4572 -75.5431 45° Northeast 443 510 24,900 504 Climbing Washington Center
Mon 09:36:22 AM 39.5531 -75.4139 46° Northeast 443 510 25,000 700 Climbing Washington Center
Mon 09:38:24 AM 39.7317 -75.1653 47° Northeast 454 522 27,000 779 Climbing Washington Center
Mon 09:38:56 AM 39.7797 -75.0983 47° Northeast 470 541 27,000 333 Level New York Center
Mon 09:39:54 AM 39.8589 -74.9869 47° Northeast 478 550 27,500 966 Climbing New York Center
Mon 09:40:54 AM 39.9489 -74.8597 47° Northeast 478 550 28,900 738 Climbing New York Center
Mon 09:41:56 AM 40.0497 -74.7164 47° Northeast 484 557 29,000 33 Climbing New York Center
Mon 09:43:00 AM 40.1198 -74.6079 50° Northeast  Level FlightAware Approximate
Mon 09:43:54 AM 40.2350 -74.4631 50° Northeast 479 551 29,000  Level New York Center
Mon 09:44:56 AM 40.3428 -74.3519 38° Northeast 484 557 29,000  Level New York Center
Mon 09:45:56 AM 40.4442 -74.2344 41° Northeast 484 557 29,000 -38 Level New York Center
Mon 09:47:32 AM 40.5911 -74.0033 50° Northeast 515 593 28,900 -538 Descending Boston Center
Mon 09:48:32 AM 40.6661 -73.8519 57° Northeast 502 578 27,600 -1,300 Descending Boston Center
Mon 09:49:32 AM 40.7386 -73.6972 58° Northeast 495 570 26,300 -1,300 Descending Boston Center
Mon 09:50:32 AM 40.8092 -73.5450 58° Northeast 490 564 25,000 -1,150 Descending Boston Center
Mon 09:51:32 AM 40.8853 -73.4064 54° Northeast 484 557 24,000 -900 Descending Boston Center
Mon 09:52:32 AM 40.9717 -73.2786 48° Northeast 470 541 23,200 -500 Descending Boston Center
Mon 09:53:32 AM 41.0539 -73.1531 49° Northeast 457 526 23,000 -100 Descending Boston Center
Mon 09:54:32 AM 41.1381 -73.0244 49° Northeast 457 526 23,000  Level Boston Center
Mon 09:55:32 AM 41.2200 -72.8981 49° Northeast 457 526 23,000  Level Boston Center
Mon 09:56:32 AM 41.2786 -72.7633 60° Northeast 459 528 23,000  Level Boston Center
Mon 09:57:32 AM 41.3333 -72.6086 65° Northeast 459 528 23,000  Level Boston Center
Mon 09:58:32 AM 41.3897 -72.4539 64° Northeast 459 528 23,000 -150 Level Boston Center
Mon 09:59:32 AM 41.4436 -72.3017 65° Northeast 459 528 22,700 -1,450 Descending Boston Center
Mon 10:00:32 AM 41.5039 -72.1408 63° Northeast 442 509 20,100 -2,400 Descending Boston Center
Mon 10:01:32 AM 41.5533 -72.0103 63° Northeast 442 509 17,900 -2,250 Descending Boston Center
Mon 10:02:32 AM 41.6006 -71.8489 69° East 424 488 15,600 -2,100 Descending Boston Center
Mon 10:03:32 AM 41.6375 -71.7261 68° East 406 467 13,700 -2,000 Descending Boston Center
Mon 10:04:32 AM 41.6781 -71.5814 69° East 385 443 11,600 -1,350 Descending Boston Center
Mon 10:05:32 AM 41.7106 -71.4722 68° East 366 421 11,000 -300 Descending Boston Center
Mon 10:06:32 AM 41.7661 -71.3769 52° Northeast 312 359 11,000  Level Boston Center
Mon 10:07:32 AM 41.8256 -71.2950 46° Northeast 293 337 11,000 -350 Level Boston Center
Mon 10:08:32 AM 41.8917 -71.2269 37° Northeast 298 343 10,300 -1,393 Descending Boston Center
Mon 10:10:20 AM 42.0333 -71.1667 18° North 290 334 7,100 -1,643 Descending KA90
Mon 10:11:20 AM 42.1000 -71.1333 20° North 238 274 5,700 -1,550 Descending KA90
Mon 10:12:20 AM 42.1500 -71.1000 26° Northeast 236 272 4,000 -1,300 Descending KA90
Mon 10:14:20 AM 42.2667 -71.0500 18° North 207 238 1,800 -1,033 Descending KA90
Mon 10:15:20 AM 42.3167 -71.0333 14° North 158 182 900 -900 Descending KA90

Login

Don't have an account? Register now (free) for customized features, flight alerts, and more!